KBAF/BAF METAR and TAF weather

Enter ICAO airport designator
Station Type Date Time Source
KBAF METAR 2021/07/26 14:53 UTC NOAA

KBAF 261453Z 27009KT 9SM CLR 28/19 A2988 RMK AO2 SLP116 T02780194 58001


Station Type Date Time Source
KBAF Decoded METAR 2021/07/26 14:53 UTC NOAA

WESTFIELD BARNES MUNICIPAL, MA, United States (KBAF) 42-10N 072-43W 83M
Jul 26, 2021 - 10:53 AM EDT / 2021.07.26 1453 UTC
Wind: from the W (270 degrees) at 10 MPH (9 KT):0
Visibility: 9 mile(s):0
Sky conditions: clear
Temperature: 82.0 F (27.8 C)
Dew Point: 66.9 F (19.4 C)
Relative Humidity: 60%
Pressure (altimeter): 29.88 in. Hg (1011 hPa)
Pressure tendency: 0.00 inches (0.1 hPa) lower than three hours ago
ob: KBAF 261453Z 27009KT 9SM CLR 28/19 A2988 RMK AO2 SLP116 T02780194 58001
cycle: 15

Station Type Date Time Source
KBAF TAF 2021/07/26 14:30 UTC NOAA

TAF
AMD KBAF 261427Z 2614/2712 00000KT P6SM SKC
FM261700 29007KT P6SM FEW250
FM270000 23003KT P6SM SKC
FM270400 00000KT P6SM SKC

Example: see airport list